Time;durP1;ratioP1;P1;durP2;ratioP2;P2;SDS_P1;SDS_P2;PMS_P1;PMS_P2;Temp;Humidity;BMP_temperature;BMP_pressure;BME280_temperature;BME280_humidity;BME280_pressure;Samples;Min_cycle;Max_cycle;Signal;HPM_P1;HPM_P2
2023/04/29 00:00:42;;;;;;;3.53;2.10;;;14.80;99.90;;;;;;5018885;28;20042;-76
2023/04/29 00:03:09;;;;;;;4.38;2.22;;;14.80;99.90;;;;;;5025685;28;20046;-76
2023/04/29 00:05:36;;;;;;;6.55;2.97;;;14.80;99.90;;;;;;5021882;28;20053;-76
2023/04/29 00:08:03;;;;;;;7.85;3.30;;;14.80;99.90;;;;;;5026202;28;20479;-77
2023/04/29 00:10:30;;;;;;;5.32;3.08;;;14.80;99.90;;;;;;5014276;28;20053;-77
2023/04/29 00:12:57;;;;;;;3.83;2.22;;;14.80;99.90;;;;;;5024537;28;20057;-77
2023/04/29 00:15:23;;;;;;;6.30;2.20;;;14.80;99.90;;;;;;5027411;28;20056;-76
2023/04/29 00:17:50;;;;;;;4.40;2.83;;;14.80;99.90;;;;;;5014283;28;20049;-77
2023/04/29 00:20:17;;;;;;;5.80;2.60;;;14.80;99.90;;;;;;5021994;28;20505;-77
2023/04/29 00:22:44;;;;;;;8.13;2.33;;;14.80;99.90;;;;;;5006812;28;20045;-77
2023/04/29 00:25:11;;;;;;;4.00;2.25;;;14.80;99.90;;;;;;5000711;28;20042;-77
2023/04/29 00:27:38;;;;;;;3.08;2.03;;;14.70;99.90;;;;;;5031956;28;20439;-76
2023/04/29 00:30:07;;;;;;;6.47;2.70;;;14.70;99.90;;;;;;5018333;28;20124;-77
2023/04/29 00:32:33;;;;;;;4.00;2.58;;;14.70;99.90;;;;;;5030130;28;20045;-77
2023/04/29 00:35:01;;;;;;;5.13;2.30;;;14.70;99.90;;;;;;5000021;28;20513;-77
2023/04/29 00:37:27;;;;;;;7.68;3.70;;;14.70;99.90;;;;;;5033528;28;20497;-77
2023/04/29 00:39:54;;;;;;;4.10;2.72;;;14.70;99.90;;;;;;5021960;28;20049;-77
2023/04/29 00:42:21;;;;;;;7.65;2.85;;;14.70;99.90;;;;;;5021790;28;20048;-77
2023/04/29 00:44:48;;;;;;;4.35;2.53;;;14.70;99.90;;;;;;5015901;28;20049;-78
2023/04/29 00:47:14;;;;;;;5.75;2.88;;;14.70;99.90;;;;;;5022620;28;20433;-76
2023/04/29 00:49:41;;;;;;;5.15;2.80;;;14.70;99.90;;;;;;5009590;28;20045;-77
2023/04/29 00:52:10;;;;;;;5.70;2.72;;;14.70;99.90;;;;;;5023027;28;20054;-77
2023/04/29 00:54:38;;;;;;;5.75;2.78;;;14.70;99.90;;;;;;5022900;28;20053;-77
2023/04/29 00:57:05;;;;;;;7.78;2.83;;;14.70;99.90;;;;;;5025581;28;20057;-77
2023/04/29 00:59:33;;;;;;;4.82;2.42;;;14.70;99.90;;;;;;5014355;28;20518;-77
2023/04/29 01:02:01;;;;;;;4.03;2.33;;;14.60;99.90;;;;;;5027723;28;20052;-77
2023/04/29 01:04:29;;;;;;;6.75;2.35;;;14.60;99.90;;;;;;5023631;28;20056;-77
2023/04/29 01:07:08;;;;;;;3.90;2.30;;;14.60;99.90;;;;;;5006554;28;20132;-76
2023/04/29 01:09:56;;;;;;;3.43;2.43;;;14.60;99.90;;;;;;5022655;28;20046;-76
2023/04/29 01:12:29;;;;;;;3.47;2.50;;;14.60;99.90;;;;;;5024405;28;20068;-77
2023/04/29 01:15:18;;;;;;;6.97;2.92;;;14.60;99.90;;;;;;5020288;28;20513;-77
2023/04/29 01:17:59;;;;;;;4.75;3.53;;;14.60;99.90;;;;;;5030154;28;20520;-77
2023/04/29 01:20:27;;;;;;;6.05;2.33;;;14.60;99.90;;;;;;5013028;28;20120;-76
2023/04/29 01:22:54;;;;;;;7.63;2.58;;;14.50;99.90;;;;;;5024937;28;20144;-76
2023/04/29 01:25:20;;;;;;;4.93;2.80;;;14.50;99.90;;;;;;5028067;28;20053;-77
2023/04/29 01:28:19;;;;;;;6.78;3.10;;;14.50;99.90;;;;;;5027505;28;20060;-76
2023/04/29 01:30:58;;;;;;;6.20;2.60;;;14.50;99.90;;;;;;5027340;28;20055;-77
2023/04/29 01:33:47;;;;;;;8.88;2.45;;;14.50;99.90;;;;;;5026989;28;20149;-77
2023/04/29 01:36:21;;;;;;;5.53;2.80;;;14.50;99.90;;;;;;5028670;28;20203;-77
2023/04/29 01:39:24;;;;;;;6.05;2.95;;;14.50;99.90;;;;;;5022451;28;20056;-77
2023/04/29 01:42:14;;;;;;;5.47;2.53;;;14.40;99.90;;;;;;5013250;28;20044;-77
2023/04/29 01:44:42;;;;;;;3.63;2.30;;;14.40;99.90;;;;;;5007529;28;21344;-77
2023/04/29 01:47:12;;;;;;;3.35;2.13;;;14.40;99.90;;;;;;5028450;28;20056;-77
2023/04/29 01:49:39;;;;;;;;;;;14.40;99.90;;;;;;5025584;28;20049;-77
2023/04/29 01:52:06;;;;;;;3.58;1.70;;;14.40;99.90;;;;;;5009234;28;20145;-77
2023/04/29 01:54:36;;;;;;;3.92;2.15;;;14.40;99.90;;;;;;5024211;28;20133;-77
2023/04/29 01:57:03;;;;;;;2.73;1.93;;;14.40;99.90;;;;;;5014331;28;20048;-77
2023/04/29 01:59:30;;;;;;;2.85;1.65;;;14.30;99.90;;;;;;5029687;28;20041;-76
2023/04/29 02:01:57;;;;;;;7.05;2.00;;;14.30;99.90;;;;;;5027577;28;20543;-76
2023/04/29 02:04:25;;;;;;;4.38;2.17;;;14.30;99.90;;;;;;5031042;28;20061;-76
2023/04/29 02:06:51;;;;;;;4.15;1.90;;;14.30;99.90;;;;;;5009095;28;20103;-77
2023/04/29 02:09:18;;;;;;;4.00;2.25;;;14.30;99.90;;;;;;5021435;28;20053;-77
2023/04/29 02:11:45;;;;;;;5.93;1.73;;;14.30;99.90;;;;;;5014467;28;20044;-77
2023/04/29 02:14:11;;;;;;;3.58;1.75;;;14.30;99.90;;;;;;5008414;28;20117;-77
2023/04/29 02:16:38;;;;;;;7.10;2.35;;;14.30;99.90;;;;;;5007278;28;20049;-76
2023/04/29 02:19:05;;;;;;;2.80;1.92;;;14.30;99.90;;;;;;5004399;28;20049;-78
2023/04/29 02:21:33;;;;;;;3.53;1.60;;;14.30;99.90;;;;;;5023948;28;20041;-77
2023/04/29 02:24:00;;;;;;;6.70;2.20;;;14.30;99.90;;;;;;5022402;28;20046;-77
2023/04/29 02:26:27;;;;;;;6.38;2.05;;;14.30;99.90;;;;;;5025710;28;20518;-77
2023/04/29 02:28:56;;;;;;;2.78;1.90;;;14.30;99.90;;;;;;5028662;28;20050;-77
2023/04/29 02:31:22;;;;;;;2.55;1.77;;;14.30;99.90;;;;;;5024833;28;20472;-77
2023/04/29 02:33:49;;;;;;;7.65;2.08;;;14.30;99.90;;;;;;5028330;28;20041;-77
2023/04/29 02:36:17;;;;;;;1.83;1.70;;;14.30;99.90;;;;;;5011115;28;20052;-76
2023/04/29 02:38:43;;;;;;;3.72;1.45;;;14.30;99.90;;;;;;5026834;28;20056;-77
2023/04/29 02:41:15;;;;;;;4.43;1.67;;;14.30;99.90;;;;;;5027418;28;20048;-77
2023/04/29 02:43:43;;;;;;;9.52;2.83;;;14.20;99.90;;;;;;5014384;28;20056;-77
2023/04/29 02:46:10;;;;;;;5.18;2.35;;;14.20;99.90;;;;;;5027377;28;20050;-77
2023/04/29 02:48:37;;;;;;;3.38;1.40;;;14.20;99.90;;;;;;5027495;28;20049;-77
2023/04/29 02:51:04;;;;;;;3.67;1.65;;;14.20;99.90;;;;;;5013628;28;20045;-77
2023/04/29 02:53:30;;;;;;;5.63;1.60;;;14.20;99.90;;;;;;5023842;28;20104;-77
2023/04/29 02:55:57;;;;;;;7.53;1.85;;;14.20;99.90;;;;;;5003633;28;20516;-77
2023/04/29 02:58:24;;;;;;;6.32;1.48;;;14.20;99.90;;;;;;5023621;28;20042;-76
2023/04/29 03:00:51;;;;;;;3.15;1.80;;;14.20;99.90;;;;;;5020653;28;20037;-77
2023/04/29 03:03:18;;;;;;;5.38;1.70;;;14.20;99.90;;;;;;5028315;28;20050;-76
2023/04/29 03:05:45;;;;;;;5.28;1.73;;;14.10;99.90;;;;;;5024060;28;20114;-77
2023/04/29 03:08:11;;;;;;;4.47;1.85;;;14.10;99.90;;;;;;5026981;28;20060;-77
2023/04/29 03:10:38;;;;;;;9.02;1.85;;;14.10;99.90;;;;;;5026022;28;20046;-77
2023/04/29 03:13:07;;;;;;;4.85;1.65;;;14.10;99.90;;;;;;5023874;28;20050;-77
2023/04/29 03:15:34;;;;;;;5.93;1.92;;;14.10;99.90;;;;;;5027381;28;20049;-77
2023/04/29 03:18:02;;;;;;;6.32;1.77;;;14.00;99.90;;;;;;5024303;28;20044;-77
2023/04/29 03:20:29;;;;;;;5.57;1.92;;;14.00;99.90;;;;;;5027769;28;20061;-77
2023/04/29 03:22:56;;;;;;;13.30;3.10;;;14.00;99.90;;;;;;5025089;28;20045;-77
2023/04/29 03:25:23;;;;;;;4.07;1.85;;;14.00;99.90;;;;;;5022439;28;20049;-76
2023/04/29 03:27:50;;;;;;;2.78;1.65;;;13.90;99.90;;;;;;5027316;28;20076;-76
2023/04/29 03:30:17;;;;;;;4.03;2.17;;;13.90;99.90;;;;;;5015341;28;20077;-77
2023/04/29 03:32:43;;;;;;;7.07;1.90;;;13.90;99.90;;;;;;5027842;28;20045;-76
2023/04/29 03:35:10;;;;;;;2.38;1.80;;;13.90;99.90;;;;;;5018154;28;20103;-76
2023/04/29 03:37:43;;;;;;;4.05;2.00;;;13.80;99.90;;;;;;5029890;28;20045;-77
2023/04/29 03:40:10;;;;;;;4.32;2.42;;;13.80;99.90;;;;;;5019726;28;20100;-77
2023/04/29 03:42:37;;;;;;;2.83;1.73;;;13.80;99.90;;;;;;5014653;28;20074;-76
2023/04/29 03:45:05;;;;;;;4.00;1.70;;;13.80;99.90;;;;;;5014909;28;20051;-76
2023/04/29 03:47:31;;;;;;;5.85;1.90;;;13.80;99.90;;;;;;5026704;28;20055;-77
2023/04/29 03:49:58;;;;;;;3.35;1.50;;;13.70;99.90;;;;;;5026515;28;20441;-77
2023/04/29 03:52:25;;;;;;;1.60;1.50;;;13.70;99.90;;;;;;5024226;28;20059;-76
2023/04/29 03:54:51;;;;;;;5.15;2.08;;;13.60;99.90;;;;;;5023767;28;20041;-77
2023/04/29 03:57:18;;;;;;;9.18;1.90;;;13.70;99.90;;;;;;5026291;28;20076;-77
2023/04/29 03:59:48;;;;;;;4.20;1.83;;;13.60;99.90;;;;;;5019789;28;20049;-77
2023/04/29 04:02:16;;;;;;;5.28;1.70;;;13.60;99.90;;;;;;5026889;28;20486;-77
2023/04/29 04:04:42;;;;;;;4.55;2.00;;;13.50;99.90;;;;;;4999541;28;20114;-76
2023/04/29 04:07:10;;;;;;;3.22;1.63;;;13.50;99.90;;;;;;5026368;28;20045;-77
2023/04/29 04:09:37;;;;;;;2.50;2.17;;;13.40;99.90;;;;;;5019211;28;20061;-77
2023/04/29 04:12:05;;;;;;;3.20;1.80;;;13.40;99.90;;;;;;5025398;28;20059;-76
2023/04/29 04:14:32;;;;;;;5.18;2.35;;;13.40;99.90;;;;;;5022572;28;20081;-77
2023/04/29 04:16:59;;;;;;;6.60;2.30;;;13.40;99.90;;;;;;5029389;28;20160;-78
2023/04/29 04:19:27;;;;;;;6.95;2.25;;;13.30;99.90;;;;;;5023698;28;20045;-77
2023/04/29 04:21:54;;;;;;;5.97;2.22;;;13.30;99.90;;;;;;5024599;28;20042;-77
2023/04/29 04:24:21;;;;;;;7.88;2.70;;;13.30;99.90;;;;;;5026528;28;20058;-77
2023/04/29 04:26:48;;;;;;;3.80;2.40;;;13.30;99.90;;;;;;5026094;28;20053;-77
2023/04/29 04:29:15;;;;;;;5.07;2.17;;;13.30;99.90;;;;;;5022403;28;20057;-77
2023/04/29 04:31:42;;;;;;;5.50;1.80;;;13.20;99.90;;;;;;5015725;28;20054;-78
2023/04/29 04:34:12;;;;;;;;;;;13.20;99.90;;;;;;5017055;28;20129;-78
2023/04/29 04:36:38;;;;;;;2.38;1.92;;;13.20;99.90;;;;;;5027662;28;19926;-78
2023/04/29 04:39:05;;;;;;;3.53;1.63;;;13.20;99.90;;;;;;5017392;28;20048;-77
2023/04/29 04:41:32;;;;;;;7.50;2.17;;;13.20;99.90;;;;;;5019225;28;20052;-77
2023/04/29 04:43:58;;;;;;;7.28;1.92;;;13.10;99.90;;;;;;5022561;28;20057;-77
2023/04/29 04:46:25;;;;;;;3.05;1.80;;;13.20;99.90;;;;;;5020723;28;20069;-77
2023/04/29 04:48:52;;;;;;;1.65;1.42;;;13.20;99.90;;;;;;5024325;28;20063;-76
2023/04/29 04:51:19;;;;;;;3.85;1.95;;;13.10;99.90;;;;;;5019439;28;20057;-77
2023/04/29 04:53:46;;;;;;;1.77;1.60;;;13.10;99.90;;;;;;5027188;28;20056;-77
2023/04/29 04:56:13;;;;;;;4.20;1.38;;;13.20;99.90;;;;;;5022109;28;20037;-77
2023/04/29 04:58:39;;;;;;;1.55;1.45;;;13.20;99.90;;;;;;5029151;28;20057;-77
2023/04/29 05:01:06;;;;;;;2.95;1.20;;;13.20;99.90;;;;;;5027386;28;20057;-77
2023/04/29 05:03:33;;;;;;;4.82;2.75;;;13.20;99.90;;;;;;5024643;28;20081;-77
2023/04/29 05:06:00;;;;;;;4.55;1.33;;;13.30;99.90;;;;;;5032573;28;20234;-76
2023/04/29 05:08:27;;;;;;;1.77;1.20;;;13.40;99.90;;;;;;5023082;28;20049;-77
2023/04/29 05:10:53;;;;;;;2.50;1.55;;;13.40;99.90;;;;;;5029676;28;20045;-77
2023/04/29 05:13:20;;;;;;;1.60;0.90;;;13.50;99.90;;;;;;5022226;28;20057;-77
2023/04/29 05:15:47;;;;;;;1.50;1.20;;;13.50;99.90;;;;;;5028629;28;20528;-76
2023/04/29 05:18:13;;;;;;;4.63;1.20;;;13.50;99.90;;;;;;5023611;28;20079;-78
2023/04/29 05:20:40;;;;;;;6.85;1.65;;;13.60;99.90;;;;;;5026850;28;20467;-77
2023/04/29 05:23:07;;;;;;;4.28;2.25;;;13.60;99.90;;;;;;5027714;28;20046;-77
2023/04/29 05:25:34;;;;;;;5.15;2.17;;;13.60;99.90;;;;;;5025583;28;20136;-77
2023/04/29 05:28:03;;;;;;;3.15;1.70;;;13.60;99.90;;;;;;5018824;28;20048;-77
2023/04/29 05:30:29;;;;;;;4.78;1.75;;;13.70;99.90;;;;;;5027059;28;20058;-77
2023/04/29 05:32:56;;;;;;;3.28;1.40;;;13.60;99.90;;;;;;5029026;28;20654;-77
2023/04/29 05:35:23;;;;;;;3.45;1.60;;;13.60;99.90;;;;;;5028368;28;20073;-77
2023/04/29 05:37:50;;;;;;;10.05;1.83;;;13.60;99.90;;;;;;5028062;28;20054;-77
2023/04/29 05:40:16;;;;;;;7.13;2.15;;;13.60;99.90;;;;;;5026561;28;20430;-77
2023/04/29 05:42:43;;;;;;;6.72;2.92;;;13.50;99.90;;;;;;5023342;28;20049;-77
2023/04/29 05:45:11;;;;;;;5.65;3.20;;;13.50;99.90;;;;;;5029360;28;20048;-77
2023/04/29 05:47:37;;;;;;;3.97;2.65;;;13.40;99.90;;;;;;5025843;28;20076;-77
2023/04/29 05:50:05;;;;;;;3.42;2.75;;;13.40;99.90;;;;;;5005620;28;20049;-77
2023/04/29 05:52:32;;;;;;;5.75;3.08;;;13.40;99.90;;;;;;5024328;28;20153;-77
2023/04/29 05:54:58;;;;;;;6.43;3.05;;;13.50;99.90;;;;;;5024879;28;20072;-76
2023/04/29 05:57:25;;;;;;;7.07;4.05;;;13.50;99.90;;;;;;5030751;28;20042;-77
2023/04/29 05:59:54;;;;;;;4.00;3.00;;;13.50;99.90;;;;;;5024430;28;20053;-77
2023/04/29 06:02:21;;;;;;;4.70;3.40;;;13.60;99.90;;;;;;5029416;28;20041;-77
2023/04/29 06:04:48;;;;;;;3.83;2.38;;;13.70;99.90;;;;;;5017864;28;20100;-77
2023/04/29 06:07:16;;;;;;;6.32;2.40;;;13.70;99.90;;;;;;5029871;28;20053;-77
2023/04/29 06:09:45;;;;;;;;;;;13.70;99.90;;;;;;5028569;28;20513;-77
2023/04/29 06:12:12;;;;;;;4.40;2.28;;;13.80;99.90;;;;;;5025484;28;20015;-77
2023/04/29 06:14:39;;;;;;;4.53;2.22;;;13.80;99.90;;;;;;5028350;28;20052;-76
2023/04/29 06:17:05;;;;;;;3.83;2.00;;;13.90;99.90;;;;;;5027142;28;20047;-77
2023/04/29 06:19:32;;;;;;;4.68;2.20;;;14.00;99.90;;;;;;5027059;28;20421;-77
2023/04/29 06:21:59;;;;;;;2.72;2.10;;;14.10;99.90;;;;;;5022370;28;20422;-77
2023/04/29 06:24:26;;;;;;;3.80;1.95;;;14.20;99.90;;;;;;5016930;28;20461;-77
2023/04/29 06:26:53;;;;;;;4.28;2.10;;;14.30;99.90;;;;;;5012179;28;20426;-77
2023/04/29 06:29:19;;;;;;;3.97;2.30;;;14.40;99.90;;;;;;5018110;28;20053;-78
2023/04/29 06:31:46;;;;;;;1.73;1.60;;;14.50;99.90;;;;;;5030947;28;20046;-77
2023/04/29 06:34:13;;;;;;;3.97;2.10;;;14.50;99.90;;;;;;5020779;28;20081;-77
2023/04/29 06:36:40;;;;;;;4.10;2.15;;;14.50;99.90;;;;;;5029168;28;20046;-77
2023/04/29 06:39:07;;;;;;;2.58;2.00;;;14.50;99.90;;;;;;5024464;28;20045;-77
2023/04/29 06:41:33;;;;;;;2.97;1.80;;;14.50;99.90;;;;;;5025171;28;20067;-77
2023/04/29 06:44:00;;;;;;;2.28;2.08;;;14.40;99.90;;;;;;5027876;28;20048;-77
2023/04/29 06:46:27;;;;;;;2.97;1.77;;;14.40;99.90;;;;;;5027284;28;20145;-77
2023/04/29 06:48:54;;;;;;;2.13;1.67;;;14.40;99.90;;;;;;5027459;28;20132;-76
2023/04/29 06:51:21;;;;;;;3.20;1.55;;;14.40;99.90;;;;;;5025118;28;20050;-78
2023/04/29 06:53:48;;;;;;;2.72;1.83;;;14.40;99.90;;;;;;5021394;28;20056;-77
2023/04/29 06:56:15;;;;;;;3.80;1.65;;;14.40;99.90;;;;;;5028800;28;20050;-76
2023/04/29 06:58:42;;;;;;;3.08;1.90;;;14.40;99.90;;;;;;5018171;28;20493;-78
2023/04/29 07:01:09;;;;;;;2.97;1.92;;;14.40;99.90;;;;;;5007280;28;20048;-78
2023/04/29 07:03:37;;;;;;;2.47;1.65;;;14.40;99.90;;;;;;5014037;28;20049;-78
2023/04/29 07:06:04;;;;;;;4.82;1.80;;;14.40;99.90;;;;;;5014236;28;20557;-76
2023/04/29 07:08:31;;;;;;;4.65;1.95;;;14.40;99.90;;;;;;5015848;28;20050;-76
2023/04/29 07:10:57;;;;;;;3.03;1.77;;;14.40;99.90;;;;;;5020980;28;20096;-76
2023/04/29 07:13:25;;;;;;;3.63;2.17;;;14.50;99.90;;;;;;5009711;28;20053;-76
2023/04/29 07:15:51;;;;;;;3.85;2.15;;;14.50;99.90;;;;;;5022079;28;20042;-77
2023/04/29 07:18:18;;;;;;;4.40;1.95;;;14.50;99.90;;;;;;5021654;28;20050;-76
2023/04/29 07:20:46;;;;;;;4.40;1.98;;;14.60;99.90;;;;;;5022483;28;20424;-74
2023/04/29 07:23:14;;;;;;;3.20;1.90;;;14.70;99.90;;;;;;5022105;28;20049;-76
2023/04/29 07:25:40;;;;;;;2.03;1.40;;;14.80;99.90;;;;;;5009943;28;20053;-76
2023/04/29 07:28:08;;;;;;;2.53;1.88;;;14.90;99.90;;;;;;5020184;28;20046;-75
2023/04/29 07:30:35;;;;;;;2.15;1.67;;;15.00;99.90;;;;;;5024167;28;20076;-76
2023/04/29 07:33:03;;;;;;;3.63;1.88;;;15.10;99.90;;;;;;5019671;28;20081;-76
2023/04/29 07:35:30;;;;;;;3.70;1.70;;;15.30;99.90;;;;;;5005246;28;20068;-75
2023/04/29 07:37:57;;;;;;;2.78;1.65;;;15.50;99.90;;;;;;5028605;28;20077;-76
2023/04/29 07:40:23;;;;;;;2.15;1.80;;;15.60;99.90;;;;;;5026779;28;20052;-77
2023/04/29 07:42:50;;;;;;;3.78;1.50;;;15.60;99.90;;;;;;5026943;28;20045;-77
2023/04/29 07:45:17;;;;;;;1.90;1.65;;;15.70;99.90;;;;;;5026865;28;20053;-76
2023/04/29 07:47:44;;;;;;;2.33;1.70;;;15.60;99.90;;;;;;5027649;28;20087;-77
2023/04/29 07:50:11;;;;;;;2.08;1.48;;;15.70;99.90;;;;;;5028558;28;20523;-76
2023/04/29 07:52:38;;;;;;;3.78;1.30;;;15.70;99.90;;;;;;5026052;28;20057;-76
2023/04/29 07:55:05;;;;;;;3.42;1.30;;;15.70;99.90;;;;;;5029619;28;20137;-76
2023/04/29 07:57:31;;;;;;;1.42;1.15;;;15.80;99.90;;;;;;5028340;28;20045;-76
2023/04/29 07:59:58;;;;;;;4.35;1.45;;;15.70;99.90;;;;;;5027473;28;20072;-76
2023/04/29 08:02:25;;;;;;;6.03;1.83;;;15.70;99.90;;;;;;5025619;28;20042;-77
2023/04/29 08:04:53;;;;;;;3.15;1.58;;;15.70;99.90;;;;;;5018207;28;20108;-76
2023/04/29 08:07:20;;;;;;;2.42;1.77;;;15.70;99.90;;;;;;5024500;28;20073;-76
2023/04/29 08:09:47;;;;;;;1.92;1.50;;;15.60;99.90;;;;;;5025191;28;20042;-77
2023/04/29 08:12:14;;;;;;;3.67;1.27;;;15.60;99.90;;;;;;5029916;28;20053;-77
2023/04/29 08:14:40;;;;;;;4.05;1.40;;;15.60;99.90;;;;;;5026192;28;20072;-77
2023/04/29 08:17:07;;;;;;;2.92;1.73;;;15.60;99.90;;;;;;5024889;28;20065;-77
2023/04/29 08:19:34;;;;;;;3.55;1.42;;;15.60;99.90;;;;;;5020538;28;20060;-77
2023/04/29 08:22:03;;;;;;;2.70;1.90;;;15.60;99.90;;;;;;5024520;28;20052;-75
2023/04/29 08:24:29;;;;;;;1.48;1.38;;;15.60;99.90;;;;;;5022566;28;20453;-77
2023/04/29 08:26:57;;;;;;;2.40;1.33;;;15.50;99.90;;;;;;5026736;28;20046;-76
2023/04/29 08:29:24;;;;;;;3.08;1.85;;;15.50;99.90;;;;;;5021266;28;20049;-77
2023/04/29 08:31:50;;;;;;;1.85;1.75;;;15.50;99.90;;;;;;5024390;28;20050;-76
2023/04/29 08:34:17;;;;;;;2.97;1.75;;;15.60;99.90;;;;;;5016010;28;20424;-76
2023/04/29 08:36:44;;;;;;;1.70;1.60;;;15.50;99.90;;;;;;5026996;28;20041;-76
2023/04/29 08:39:11;;;;;;;2.58;1.80;;;15.60;99.90;;;;;;5026916;28;20099;-76
2023/04/29 08:41:38;;;;;;;1.77;1.55;;;15.60;99.90;;;;;;5022345;28;20038;-76
2023/04/29 08:44:05;;;;;;;5.18;2.17;;;15.60;99.90;;;;;;5023579;28;20057;-77
2023/04/29 08:46:31;;;;;;;4.10;1.83;;;15.70;99.90;;;;;;5024027;28;20054;-76
2023/04/29 08:49:00;;;;;;;1.85;1.60;;;15.80;99.90;;;;;;5027663;28;20504;-77
2023/04/29 08:51:27;;;;;;;2.35;1.73;;;15.80;99.90;;;;;;5025853;28;20050;-76
2023/04/29 08:53:55;;;;;;;2.85;1.38;;;15.80;99.90;;;;;;5019539;28;20081;-76
2023/04/29 08:56:22;;;;;;;1.98;1.63;;;15.90;99.90;;;;;;5026228;28;20041;-76
2023/04/29 08:58:57;;;;;;;3.13;1.88;;;16.00;99.90;;;;;;5024695;28;20046;-78
2023/04/29 09:01:27;;;;;;;2.42;1.85;;;16.00;99.90;;;;;;5027052;28;20055;-75
2023/04/29 09:04:28;;;;;;;5.97;2.20;;;16.00;99.90;;;;;;5026649;28;20060;-76
2023/04/29 09:06:56;;;;;;;3.88;2.05;;;16.00;99.90;;;;;;5027683;28;20050;-76
2023/04/29 09:09:24;;;;;;;3.35;1.80;;;16.10;99.90;;;;;;5029856;28;20534;-76
2023/04/29 09:11:51;;;;;;;3.53;2.08;;;16.10;99.90;;;;;;5030699;28;20053;-76
2023/04/29 09:14:18;;;;;;;3.08;1.83;;;16.20;99.90;;;;;;5023367;28;20061;-77
2023/04/29 09:16:46;;;;;;;6.25;1.77;;;16.20;99.90;;;;;;5026474;28;20049;-77
2023/04/29 09:19:32;;;;;;;2.60;1.63;;;16.20;99.90;;;;;;5023763;28;20457;-76
2023/04/29 09:22:00;;;;;;;2.95;1.88;;;16.10;99.90;;;;;;5006915;28;20049;-76
2023/04/29 09:24:28;;;;;;;4.82;2.17;;;16.20;99.90;;;;;;5019832;28;20050;-76
2023/04/29 09:26:56;;;;;;;3.70;2.80;;;16.20;99.90;;;;;;5024118;28;20046;-75
2023/04/29 09:29:23;;;;;;;4.28;2.58;;;16.30;99.90;;;;;;5023011;28;20049;-76
2023/04/29 09:31:52;;;;;;;6.28;1.98;;;16.30;99.90;;;;;;5026414;28;20599;-76
2023/04/29 09:34:34;;;;;;;2.57;2.30;;;16.20;99.90;;;;;;5008167;28;20061;-77
2023/04/29 09:37:01;;;;;;;4.60;2.60;;;16.30;99.90;;;;;;5024499;28;20316;-77
2023/04/29 09:39:37;;;;;;;3.97;2.78;;;16.30;99.90;;;;;;5028075;28;20501;-77
2023/04/29 09:42:05;;;;;;;6.43;2.80;;;16.40;99.90;;;;;;5028051;28;20042;-77
2023/04/29 09:44:36;;;;;;;5.20;2.92;;;16.40;99.90;;;;;;5010225;28;20516;-76
2023/04/29 09:47:07;;;;;;;3.90;2.92;;;16.40;99.90;;;;;;5027848;28;21521;-75
2023/04/29 09:49:37;;;;;;;3.90;3.20;;;16.50;99.90;;;;;;5025982;28;20140;-76
2023/04/29 09:52:05;;;;;;;5.13;2.70;;;16.50;99.90;;;;;;5020835;28;20694;-76
2023/04/29 09:54:35;;;;;;;3.30;2.67;;;16.50;99.90;;;;;;5026634;28;20052;-77
2023/04/29 09:57:04;;;;;;;3.67;2.88;;;16.50;99.90;;;;;;5027736;28;20128;-76
2023/04/29 09:59:36;;;;;;;5.13;2.67;;;16.60;99.90;;;;;;5028380;28;20092;-78
2023/04/29 10:02:14;;;;;;;5.00;2.90;;;16.50;99.90;;;;;;5025485;28;20453;-77
2023/04/29 10:04:43;;;;;;;4.30;3.55;;;16.50;99.90;;;;;;5022498;28;20410;-77
2023/04/29 10:07:14;;;;;;;5.27;2.87;;;16.60;99.90;;;;;;5022693;28;20556;-76
2023/04/29 10:09:42;;;;;;;4.35;2.80;;;16.50;99.90;;;;;;5022812;28;20050;-77
2023/04/29 10:12:09;;;;;;;6.10;3.55;;;16.60;99.90;;;;;;5026345;28;20259;-76
2023/04/29 10:14:43;;;;;;;5.38;3.22;;;16.60;99.90;;;;;;5023884;28;20045;-76
2023/04/29 10:17:17;;;;;;;4.57;3.08;;;16.70;99.90;;;;;;5022957;28;20502;-77
2023/04/29 10:20:06;;;;;;;5.55;2.90;;;16.80;99.90;;;;;;5023482;28;20444;-76
2023/04/29 10:22:41;;;;;;;4.40;3.05;;;16.80;99.90;;;;;;5024255;28;20140;-77
2023/04/29 10:25:10;;;;;;;8.00;3.15;;;16.80;99.90;;;;;;5022713;28;20049;-76
2023/04/29 10:27:38;;;;;;;3.53;2.85;;;16.90;99.90;;;;;;5022807;28;20497;-76
2023/04/29 10:30:08;;;;;;;5.13;2.97;;;17.00;99.90;;;;;;5024764;28;20425;-77
2023/04/29 10:32:38;;;;;;;5.32;3.15;;;17.00;99.90;;;;;;5022996;28;20053;-77
2023/04/29 10:35:19;;;;;;;9.75;3.60;;;17.00;99.90;;;;;;5007293;28;20053;-78
2023/04/29 10:37:50;;;;;;;4.68;3.40;;;17.10;99.90;;;;;;5022718;28;20060;-78
2023/04/29 10:40:39;;;;;;;5.55;3.63;;;17.10;99.90;;;;;;5024786;28;20072;-77
2023/04/29 10:43:05;;;;;;;5.00;3.40;;;17.10;99.90;;;;;;5022078;28;20046;-77
2023/04/29 10:45:35;;;;;;;4.60;3.33;;;17.10;99.90;;;;;;5022954;28;20687;-76
2023/04/29 10:48:04;;;;;;;5.38;2.90;;;17.10;99.90;;;;;;5024775;28;20500;-77
2023/04/29 10:50:46;;;;;;;4.70;2.75;;;17.00;99.90;;;;;;5024097;28;20053;-77
2023/04/29 10:53:22;;;;;;;4.18;2.95;;;17.10;99.90;;;;;;5021408;28;20063;-76
2023/04/29 10:56:04;;;;;;;3.25;2.95;;;17.10;99.90;;;;;;5021551;28;20065;-77
2023/04/29 10:58:44;;;;;;;5.07;2.72;;;17.10;99.90;;;;;;5023772;28;20045;-77
2023/04/29 11:01:13;;;;;;;5.75;3.15;;;17.10;99.90;;;;;;5023016;28;20100;-76
2023/04/29 11:03:53;;;;;;;8.77;2.58;;;17.20;99.90;;;;;;5021213;28;20056;-77
2023/04/29 11:06:34;;;;;;;3.63;2.60;;;17.20;99.90;;;;;;5022214;28;20049;-77
2023/04/29 11:09:03;;;;;;;;;;;17.30;99.90;;;;;;5023153;28;20716;-77
2023/04/29 11:11:42;;;;;;;2.95;2.58;;;17.30;99.90;;;;;;5021207;28;20421;-77
2023/04/29 11:14:11;;;;;;;3.42;2.10;;;17.30;99.90;;;;;;5022062;28;20046;-78
2023/04/29 11:16:46;;;;;;;3.08;2.75;;;17.40;99.90;;;;;;5023612;28;20070;-77
2023/04/29 11:19:15;;;;;;;3.53;2.67;;;17.40;99.90;;;;;;5023187;28;20085;-77
2023/04/29 11:21:43;;;;;;;6.20;2.50;;;17.40;99.90;;;;;;5021104;28;20046;-76
2023/04/29 11:24:11;;;;;;;3.42;1.75;;;17.40;99.90;;;;;;5022624;28;20052;-77
2023/04/29 11:26:38;;;;;;;3.30;2.10;;;17.50;99.90;;;;;;5023255;28;20078;-77
2023/04/29 11:29:09;;;;;;;3.05;1.80;;;17.50;99.90;;;;;;5011706;28;20054;-77
2023/04/29 11:31:37;;;;;;;3.63;2.22;;;17.50;99.90;;;;;;5024778;28;20053;-77
2023/04/29 11:34:06;;;;;;;2.28;2.08;;;17.50;99.90;;;;;;5020819;28;20429;-77
2023/04/29 11:36:33;;;;;;;3.97;1.70;;;17.60;99.90;;;;;;5013996;28;20050;-76
2023/04/29 11:39:02;;;;;;;2.17;1.90;;;17.70;99.90;;;;;;5022779;28;20049;-76
2023/04/29 11:41:30;;;;;;;3.78;1.80;;;17.70;99.90;;;;;;5003157;28;20528;-77
2023/04/29 11:43:58;;;;;;;3.80;2.40;;;17.70;99.90;;;;;;5022807;28;20055;-76
2023/04/29 11:46:27;;;;;;;3.72;2.40;;;17.80;99.90;;;;;;5024054;28;20422;-79
2023/04/29 11:48:56;;;;;;;3.73;2.60;;;17.80;99.90;;;;;;5003059;28;20544;-76
2023/04/29 11:51:23;;;;;;;4.95;2.50;;;17.80;99.90;;;;;;5020905;28;20057;-78
2023/04/29 11:53:50;;;;;;;3.45;2.38;;;17.80;99.90;;;;;;5023441;28;20053;-78
2023/04/29 11:56:21;;;;;;;2.58;1.85;;;17.80;99.90;;;;;;5041042;28;20045;-78
2023/04/29 11:58:48;;;;;;;2.70;2.17;;;17.80;99.90;;;;;;5023134;28;20421;-77
2023/04/29 12:01:15;;;;;;;2.38;2.00;;;17.80;99.90;;;;;;5025004;28;20056;-77
2023/04/29 12:03:42;;;;;;;3.63;1.83;;;17.90;99.90;;;;;;5021339;28;20053;-78
2023/04/29 12:06:12;;;;;;;2.17;1.98;;;17.90;99.90;;;;;;5011111;28;20456;-78
2023/04/29 12:08:39;;;;;;;2.63;1.90;;;17.90;99.90;;;;;;5019738;28;20115;-78
2023/04/29 12:11:06;;;;;;;3.42;2.05;;;17.90;99.90;;;;;;5022862;28;20049;-78
2023/04/29 12:13:36;;;;;;;3.88;2.13;;;17.90;99.90;;;;;;5021923;28;20060;-78
2023/04/29 12:16:04;;;;;;;3.25;2.40;;;17.90;99.90;;;;;;5020478;28;20053;-78
2023/04/29 12:18:31;;;;;;;4.78;2.60;;;18.00;99.90;;;;;;5022488;28;20059;-78
2023/04/29 12:20:58;;;;;;;3.92;2.65;;;18.00;99.90;;;;;;5022423;28;20501;-77
2023/04/29 12:23:26;;;;;;;3.00;2.45;;;18.00;99.90;;;;;;5020612;28;20133;-78
2023/04/29 12:25:55;;;;;;;4.18;2.10;;;18.10;99.90;;;;;;5022434;28;20041;-78
2023/04/29 12:28:23;;;;;;;5.07;2.83;;;18.10;99.90;;;;;;5022750;28;20425;-76
2023/04/29 12:30:53;;;;;;;4.40;2.92;;;18.10;99.90;;;;;;5020359;28;20072;-78
2023/04/29 12:33:27;;;;;;;4.40;2.65;;;18.10;99.90;;;;;;5021450;28;20049;-79
2023/04/29 12:35:57;;;;;;;3.45;2.53;;;18.10;99.90;;;;;;5020300;28;20050;-78
2023/04/29 12:38:28;;;;;;;3.75;2.70;;;18.20;99.90;;;;;;5021726;28;20389;-78
2023/04/29 12:40:57;;;;;;;2.65;2.33;;;18.20;99.90;;;;;;5023312;28;20501;-77
2023/04/29 12:43:28;;;;;;;3.47;2.43;;;18.30;99.90;;;;;;5021008;28;20049;-78
2023/04/29 12:46:08;;;;;;;20.42;3.45;;;18.40;99.90;;;;;;5023753;28;20501;-77
2023/04/29 12:48:42;;;;;;;4.75;2.63;;;18.50;99.90;;;;;;5022533;28;20053;-78
2023/04/29 12:51:10;;;;;;;4.28;2.92;;;18.60;99.90;;;;;;5020531;28;20042;-77
2023/04/29 12:53:37;;;;;;;2.72;1.98;;;18.60;99.90;;;;;;5011104;28;20045;-77
2023/04/29 12:56:05;;;;;;;2.50;1.90;;;18.70;99.90;;;;;;5022466;28;20531;-78